Time;durP1;ratioP1;P1;durP2;ratioP2;P2;SDS_P1;SDS_P2;PMS_P1;PMS_P2;Temp;Humidity;BMP_temperature;BMP_pressure;BME280_temperature;BME280_humidity;BME280_pressure;Samples;Min_cycle;Max_cycle;Signal;HPM_P1;HPM_P2
2023/10/19 00:00:56;;;;;;;3.65;2.10;;;13.00;89.00;;;;;;5054408;28;20043;-74
2023/10/19 00:03:23;;;;;;;5.40;2.30;;;13.10;88.80;;;;;;5054219;28;20032;-74
2023/10/19 00:05:49;;;;;;;9.88;2.47;;;13.20;89.00;;;;;;5054282;28;20099;-76
2023/10/19 00:08:17;;;;;;;7.35;2.47;;;13.40;88.40;;;;;;5053444;28;20067;-76
2023/10/19 00:10:47;;;;;;;6.25;2.58;;;13.60;87.30;;;;;;5054325;28;20028;-74
2023/10/19 00:13:13;;;;;;;5.82;2.80;;;13.80;86.10;;;;;;5052837;28;20025;-72
2023/10/19 00:15:40;;;;;;;4.00;2.47;;;14.00;85.60;;;;;;5052902;28;20025;-74
2023/10/19 00:23:07;;;;;;;7.90;2.92;;;14.30;84.10;;;;;;5053887;28;20025;-71
2023/10/19 00:25:34;;;;;;;5.75;2.80;;;14.40;83.50;;;;;;5052435;28;20021;-74
2023/10/19 00:28:03;;;;;;;6.45;2.80;;;14.20;83.50;;;;;;5053715;28;20021;-74
2023/10/19 00:30:32;;;;;;;10.18;2.78;;;14.20;83.60;;;;;;5053692;28;20017;-76
2023/10/19 00:33:03;;;;;;;6.80;2.70;;;14.20;83.90;;;;;;5053544;28;20017;-71
2023/10/19 00:35:36;;;;;;;7.00;2.80;;;14.10;84.40;;;;;;5053691;28;20481;-76
2023/10/19 00:41:04;;;;;;;6.47;3.22;;;14.20;84.10;;;;;;5033365;28;20040;-76
2023/10/19 00:43:38;;;;;;;10.88;3.28;;;14.30;83.20;;;;;;5048845;28;20029;-76
2023/10/19 00:46:15;;;;;;;6.82;2.83;;;14.40;82.90;;;;;;5033519;28;20030;-76
2023/10/19 00:48:46;;;;;;;8.15;3.10;;;14.60;81.60;;;;;;5033461;28;20048;-77
2023/10/19 00:54:10;;;;;;;7.05;2.38;;;15.10;79.10;;;;;;5033662;28;20470;-73
2023/10/19 00:56:36;;;;;;;7.63;2.92;;;15.20;79.00;;;;;;5033493;28;20017;-77
2023/10/19 00:59:13;;;;;;;5.60;2.38;;;15.10;79.00;;;;;;5033295;28;20029;-77
2023/10/19 01:01:43;;;;;;;8.13;2.90;;;15.00;79.50;;;;;;5048685;28;20040;-73
2023/10/19 01:04:14;;;;;;;8.13;3.00;;;14.90;80.30;;;;;;5033253;28;20028;-74
2023/10/19 01:06:59;;;;;;;9.57;3.00;;;14.90;80.10;;;;;;5033178;28;20113;-73
2023/10/19 01:09:27;;;;;;;7.25;2.88;;;14.90;79.80;;;;;;5033116;28;20393;-73
2023/10/19 01:11:53;;;;;;;5.50;2.58;;;14.80;80.40;;;;;;5048398;28;20122;-75
2023/10/19 01:14:27;;;;;;;7.03;2.55;;;14.70;80.80;;;;;;5033063;28;20497;-73
2023/10/19 01:16:56;;;;;;;6.55;2.58;;;14.80;80.40;;;;;;5033193;28;20035;-72
2023/10/19 01:19:27;;;;;;;8.02;2.50;;;15.20;77.90;;;;;;5032731;28;20107;-75
2023/10/19 01:21:58;;;;;;;5.47;2.28;;;15.50;77.00;;;;;;5033080;28;20049;-71
2023/10/19 01:24:39;;;;;;;4.50;2.58;;;15.70;76.20;;;;;;5033104;28;20026;-70
2023/10/19 01:27:08;;;;;;;5.68;2.53;;;15.60;76.30;;;;;;5033180;28;20029;-71
2023/10/19 01:29:34;;;;;;;7.03;2.50;;;15.50;77.20;;;;;;5032822;28;20030;-71
2023/10/19 01:32:06;;;;;;;3.95;1.90;;;15.50;76.90;;;;;;5032859;28;20371;-71
2023/10/19 01:34:33;;;;;;;4.80;2.25;;;15.90;75.00;;;;;;5047487;28;20050;-74
2023/10/19 01:37:03;;;;;;;3.17;1.70;;;16.20;73.50;;;;;;5032404;28;20028;-75
2023/10/19 01:39:30;;;;;;;3.85;1.65;;;16.60;71.20;;;;;;5032763;28;20037;-75
2023/10/19 01:41:57;;;;;;;6.00;2.50;;;16.70;71.10;;;;;;5032649;28;20573;-77
2023/10/19 01:44:24;;;;;;;6.07;1.90;;;16.80;71.40;;;;;;5032168;28;20032;-76
2023/10/19 01:46:50;;;;;;;5.07;2.08;;;16.70;72.10;;;;;;5032466;28;20105;-77
2023/10/19 01:49:25;;;;;;;3.25;1.90;;;16.60;72.40;;;;;;5032804;28;20112;-73
2023/10/19 01:51:51;;;;;;;6.40;1.88;;;16.60;72.00;;;;;;5032775;28;20021;-72
2023/10/19 01:54:18;;;;;;;8.20;2.38;;;16.70;71.70;;;;;;5032511;28;20036;-76
2023/10/19 01:56:44;;;;;;;6.22;1.98;;;16.60;72.00;;;;;;5032987;28;20030;-74
2023/10/19 01:59:09;;;;;;;2.70;1.83;;;16.60;72.10;;;;;;5032717;28;20133;-75
2023/10/19 02:01:37;;;;;;;5.78;2.05;;;16.70;71.90;;;;;;5032792;28;20029;-74
2023/10/19 02:04:05;;;;;;;5.82;2.28;;;16.60;71.80;;;;;;5031687;28;20026;-76
2023/10/19 02:06:38;;;;;;;6.55;2.20;;;16.60;71.80;;;;;;5032928;28;20156;-76
2023/10/19 02:09:16;;;;;;;3.90;1.90;;;16.60;72.20;;;;;;5032611;28;20028;-72
2023/10/19 02:11:45;;;;;;;4.80;1.85;;;16.60;72.70;;;;;;5032776;28;20029;-72
2023/10/19 02:14:14;;;;;;;2.53;1.52;;;16.70;72.50;;;;;;5033205;28;20112;-71
2023/10/19 02:16:43;;;;;;;4.95;2.00;;;16.70;72.20;;;;;;5050208;28;20033;-73
2023/10/19 02:19:10;;;;;;;2.05;1.60;;;16.70;72.40;;;;;;5034908;28;20034;-71
2023/10/19 02:21:41;;;;;;;3.33;1.73;;;16.80;72.20;;;;;;5051494;28;20394;-73
2023/10/19 02:24:08;;;;;;;4.97;1.75;;;16.80;72.30;;;;;;5036113;28;20103;-71
2023/10/19 02:26:35;;;;;;;3.63;1.80;;;16.80;72.30;;;;;;5049533;28;20021;-73
2023/10/19 02:29:07;;;;;;;5.50;1.50;;;16.80;72.30;;;;;;5032435;28;20017;-73
2023/10/19 02:31:33;;;;;;;4.53;1.88;;;16.70;72.50;;;;;;5032709;28;20079;-72
2023/10/19 02:33:59;;;;;;;5.68;1.95;;;16.60;72.80;;;;;;5034534;28;20148;-72
2023/10/19 02:36:29;;;;;;;4.65;1.83;;;16.50;73.00;;;;;;5036197;28;20061;-73
2023/10/19 02:39:09;;;;;;;4.32;2.17;;;16.40;73.40;;;;;;5051634;28;20501;-72
2023/10/19 02:41:42;;;;;;;3.67;1.73;;;16.30;73.90;;;;;;5035923;28;20075;-72
2023/10/19 02:44:19;;;;;;;4.40;2.08;;;16.20;74.20;;;;;;5035878;28;20477;-73
2023/10/19 02:46:53;;;;;;;4.63;1.85;;;16.20;74.20;;;;;;5035987;28;20033;-74
2023/10/19 02:49:20;;;;;;;6.50;2.05;;;16.20;73.90;;;;;;5051234;28;20025;-74
2023/10/19 02:51:47;;;;;;;3.15;1.80;;;16.20;73.60;;;;;;5036097;28;20072;-72
2023/10/19 02:54:22;;;;;;;7.88;2.03;;;16.30;73.40;;;;;;5051487;28;20025;-72
2023/10/19 02:56:51;;;;;;;3.83;1.67;;;16.40;73.20;;;;;;5035791;28;20030;-73
2023/10/19 02:59:23;;;;;;;3.17;1.60;;;16.40;72.90;;;;;;5055571;28;20040;-71
2023/10/19 03:02:17;;;;;;;7.45;1.60;;;16.50;72.60;;;;;;5055379;28;20025;-71
2023/10/19 03:04:43;;;;;;;4.88;1.70;;;16.60;72.40;;;;;;5055856;28;20374;-72
2023/10/19 03:07:12;;;;;;;4.18;1.30;;;16.60;72.20;;;;;;5055680;28;20025;-72
2023/10/19 03:09:48;;;;;;;3.55;1.58;;;16.60;72.00;;;;;;5055495;28;20033;-72
2023/10/19 03:12:14;;;;;;;3.33;1.42;;;16.70;72.00;;;;;;5055575;28;20021;-71
2023/10/19 03:14:43;;;;;;;4.43;1.80;;;16.70;72.10;;;;;;5055529;28;20032;-72
2023/10/19 03:17:09;;;;;;;3.20;1.88;;;16.70;72.30;;;;;;5055004;28;20025;-72
2023/10/19 03:19:38;;;;;;;3.60;1.42;;;16.70;73.20;;;;;;5054989;28;20400;-72
2023/10/19 03:22:05;;;;;;;2.80;1.40;;;16.70;72.60;;;;;;5055138;28;20035;-72
2023/10/19 03:24:42;;;;;;;2.60;1.38;;;16.70;72.50;;;;;;5054811;28;20083;-72
2023/10/19 03:27:15;;;;;;;2.70;1.20;;;16.70;72.70;;;;;;5055021;28;20542;-73
2023/10/19 03:29:46;;;;;;;4.47;1.55;;;16.60;72.60;;;;;;5055210;28;20032;-71
2023/10/19 03:32:12;;;;;;;4.90;1.60;;;16.60;72.80;;;;;;5055062;28;20029;-71
2023/10/19 03:34:38;;;;;;;3.65;1.67;;;16.60;72.70;;;;;;5054454;28;20052;-71
2023/10/19 03:37:05;;;;;;;4.00;1.23;;;16.60;73.00;;;;;;5054896;28;20390;-71
2023/10/19 03:39:33;;;;;;;2.58;1.23;;;16.60;73.00;;;;;;5054553;28;20028;-72
2023/10/19 03:41:59;;;;;;;2.47;1.35;;;16.60;72.90;;;;;;5054759;28;20470;-71
2023/10/19 03:44:25;;;;;;;2.03;1.17;;;16.60;72.50;;;;;;5054542;28;20021;-72
2023/10/19 03:46:57;;;;;;;3.83;1.35;;;16.70;72.60;;;;;;5054570;28;20121;-71
2023/10/19 03:49:33;;;;;;;4.85;1.02;;;16.60;72.80;;;;;;5054556;28;20021;-71
2023/10/19 03:52:00;;;;;;;4.82;1.45;;;16.60;72.60;;;;;;5054622;28;20040;-72
2023/10/19 03:54:27;;;;;;;4.00;1.65;;;16.60;72.70;;;;;;5054495;28;20202;-72
2023/10/19 03:56:53;;;;;;;3.63;1.40;;;16.50;72.90;;;;;;5053062;28;20029;-72
2023/10/19 03:59:23;;;;;;;3.33;1.20;;;16.50;73.10;;;;;;5054422;28;20033;-71
2023/10/19 04:01:49;;;;;;;4.00;1.17;;;16.60;72.80;;;;;;5054024;28;20088;-70
2023/10/19 04:04:16;;;;;;;3.35;1.15;;;16.60;72.50;;;;;;5054193;28;20029;-71
2023/10/19 04:06:47;;;;;;;3.08;1.27;;;16.50;72.80;;;;;;5054105;28;20021;-71
2023/10/19 04:09:17;;;;;;;3.67;1.30;;;16.50;73.20;;;;;;5054494;28;20033;-70
2023/10/19 04:11:48;;;;;;;5.72;1.30;;;16.40;73.00;;;;;;5054123;28;20517;-72
2023/10/19 04:14:15;;;;;;;2.60;1.00;;;16.40;72.80;;;;;;5054360;28;20039;-72
2023/10/19 04:16:43;;;;;;;3.10;1.50;;;16.40;73.00;;;;;;5053935;28;20017;-72
2023/10/19 04:19:10;;;;;;;2.53;1.38;;;16.30;73.50;;;;;;5053933;28;20075;-72
2023/10/19 04:21:38;;;;;;;3.30;1.50;;;16.20;74.00;;;;;;5053648;28;20453;-71
2023/10/19 04:24:08;;;;;;;2.17;1.70;;;16.10;74.90;;;;;;5053985;28;20025;-71
2023/10/19 04:26:37;;;;;;;3.80;1.88;;;15.90;75.40;;;;;;5054095;28;20040;-71
2023/10/19 04:29:17;;;;;;;2.92;1.50;;;15.80;76.60;;;;;;5053834;28;20359;-72
2023/10/19 04:31:49;;;;;;;4.05;1.65;;;15.50;77.40;;;;;;5053793;28;20048;-72
2023/10/19 04:34:20;;;;;;;5.47;2.40;;;15.40;78.00;;;;;;5053775;28;20052;-72
2023/10/19 04:36:46;;;;;;;3.83;1.88;;;15.30;78.50;;;;;;5052664;28;20091;-72
2023/10/19 04:39:13;;;;;;;3.90;1.88;;;15.20;79.00;;;;;;5052469;28;20037;-73
2023/10/19 04:41:41;;;;;;;3.80;2.05;;;15.10;80.30;;;;;;5052589;28;20053;-72
2023/10/19 04:44:09;;;;;;;5.07;1.88;;;15.10;79.70;;;;;;5052495;28;20409;-73
2023/10/19 04:46:35;;;;;;;3.45;1.73;;;15.00;79.90;;;;;;5052421;28;20029;-73
2023/10/19 04:49:00;;;;;;;7.50;2.00;;;15.00;79.70;;;;;;5052434;28;20035;-72
2023/10/19 04:51:28;;;;;;;3.97;1.60;;;15.10;79.60;;;;;;5052390;28;20021;-72
2023/10/19 04:53:55;;;;;;;2.17;1.40;;;15.10;79.30;;;;;;5052331;28;20382;-72
2023/10/19 04:56:20;;;;;;;5.82;1.40;;;15.10;79.10;;;;;;5051563;28;20465;-72
2023/10/19 04:58:47;;;;;;;3.08;1.48;;;15.20;77.90;;;;;;5053250;28;20083;-72
2023/10/19 05:01:12;;;;;;;2.90;1.13;;;15.30;77.90;;;;;;5053210;28;20351;-72
2023/10/19 05:03:38;;;;;;;3.15;1.55;;;15.30;76.90;;;;;;5053264;28;20030;-72
2023/10/19 05:06:04;;;;;;;4.32;1.38;;;15.40;76.90;;;;;;5053202;28;20036;-72
2023/10/19 05:08:32;;;;;;;3.13;1.27;;;15.50;76.70;;;;;;5053054;28;20029;-72
2023/10/19 05:11:01;;;;;;;4.78;1.50;;;15.50;76.70;;;;;;5053215;28;20017;-72
2023/10/19 05:13:27;;;;;;;2.95;1.20;;;15.50;75.70;;;;;;5053160;28;20086;-72
2023/10/19 05:15:54;;;;;;;4.47;1.50;;;15.60;75.40;;;;;;5053021;28;20537;-74
2023/10/19 05:18:23;;;;;;;3.75;1.40;;;15.70;75.10;;;;;;5052949;28;20032;-73
2023/10/19 05:20:50;;;;;;;4.60;1.20;;;15.70;74.20;;;;;;5056691;28;20051;-72
2023/10/19 05:23:16;;;;;;;2.30;1.10;;;15.80;73.90;;;;;;5057985;28;20021;-73
2023/10/19 05:25:42;;;;;;;1.42;0.90;;;15.90;73.40;;;;;;5053295;28;20021;-72
2023/10/19 05:28:08;;;;;;;2.10;1.02;;;15.90;73.10;;;;;;5053034;28;20031;-72
2023/10/19 05:30:35;;;;;;;2.10;1.08;;;16.00;72.60;;;;;;5052988;28;20470;-73
2023/10/19 05:33:03;;;;;;;1.33;0.75;;;16.10;72.60;;;;;;5052625;28;20120;-72
2023/10/19 05:35:30;;;;;;;2.60;0.90;;;16.10;72.60;;;;;;5052545;28;20041;-73
2023/10/19 05:37:56;;;;;;;2.03;1.10;;;16.10;72.40;;;;;;5052674;28;20091;-73
2023/10/19 05:40:29;;;;;;;4.57;1.10;;;16.10;72.60;;;;;;5052798;28;20029;-72
2023/10/19 05:42:54;;;;;;;2.38;1.10;;;16.10;72.70;;;;;;5052524;28;20013;-73
2023/10/19 05:45:20;;;;;;;2.85;1.10;;;16.20;72.50;;;;;;5052672;28;20017;-73
2023/10/19 05:47:46;;;;;;;5.15;1.00;;;16.20;72.80;;;;;;5052531;28;20485;-73
2023/10/19 05:50:14;;;;;;;3.47;1.38;;;16.20;72.90;;;;;;5052669;28;20025;-73
2023/10/19 05:52:42;;;;;;;3.53;1.13;;;16.20;73.00;;;;;;5052487;28;20203;-72
2023/10/19 05:55:08;;;;;;;2.05;1.13;;;16.20;73.30;;;;;;5051223;28;20397;-72
2023/10/19 05:57:35;;;;;;;1.38;0.80;;;16.20;73.10;;;;;;5052602;28;20029;-72
2023/10/19 06:00:01;;;;;;;4.68;1.05;;;16.20;72.70;;;;;;5051172;28;20025;-71
2023/10/19 06:02:26;;;;;;;1.60;0.82;;;16.20;73.30;;;;;;5051065;28;20135;-72
2023/10/19 06:04:52;;;;;;;3.22;1.10;;;16.30;73.40;;;;;;5052522;28;20032;-72
2023/10/19 06:07:17;;;;;;;2.35;1.10;;;16.30;72.50;;;;;;5054113;28;20373;-72
2023/10/19 06:09:43;;;;;;;1.98;0.98;;;16.20;73.80;;;;;;5056212;28;20032;-73
2023/10/19 06:12:09;;;;;;;1.17;0.70;;;16.10;73.00;;;;;;5056213;28;20029;-72
2023/10/19 06:14:34;;;;;;;3.25;0.90;;;16.00;73.80;;;;;;5055320;28;20021;-72
2023/10/19 06:17:01;;;;;;;1.60;0.75;;;16.00;73.60;;;;;;5056108;28;20493;-72
2023/10/19 06:19:27;;;;;;;1.35;0.80;;;15.90;74.30;;;;;;5054932;28;20033;-73
2023/10/19 06:21:52;;;;;;;1.73;0.80;;;15.90;74.70;;;;;;5054767;28;20098;-73
2023/10/19 06:24:18;;;;;;;2.80;0.90;;;15.90;76.20;;;;;;5056051;28;20025;-72
2023/10/19 06:26:44;;;;;;;2.60;1.00;;;15.70;76.80;;;;;;5056372;28;20025;-71
2023/10/19 06:29:10;;;;;;;2.13;1.08;;;15.70;76.90;;;;;;5055988;28;20374;-72
2023/10/19 06:31:37;;;;;;;3.15;1.00;;;15.70;77.30;;;;;;5056079;28;20032;-73
2023/10/19 06:34:02;;;;;;;1.17;1.08;;;15.60;78.00;;;;;;5054477;28;20045;-75
2023/10/19 06:36:31;;;;;;;3.55;1.20;;;15.50;78.80;;;;;;5055365;28;20028;-73
2023/10/19 06:38:57;;;;;;;1.77;1.20;;;15.40;79.50;;;;;;5057822;28;20029;-75
2023/10/19 06:41:23;;;;;;;3.90;1.80;;;15.40;80.30;;;;;;5058912;28;20342;-79
2023/10/19 06:43:49;;;;;;;6.47;2.25;;;15.40;78.80;;;;;;5058113;28;20473;-77
2023/10/19 06:46:15;;;;;;;3.70;2.22;;;15.50;77.40;;;;;;5057961;28;20074;-78
2023/10/19 06:48:42;;;;;;;5.25;3.70;;;15.70;77.70;;;;;;5056091;28;20362;-78
2023/10/19 06:51:07;;;;;;;6.65;3.45;;;15.80;77.30;;;;;;5056787;28;20049;-80
2023/10/19 06:53:33;;;;;;;4.10;2.30;;;15.90;77.30;;;;;;5064898;28;20373;-79
2023/10/19 06:55:59;;;;;;;4.55;2.65;;;16.00;77.20;;;;;;5056165;28;20378;-80
2023/10/19 06:58:26;;;;;;;4.07;2.92;;;16.10;77.50;;;;;;5056269;28;20500;-80
2023/10/19 07:01:07;;;;;;;5.00;3.03;;;16.20;76.60;;;;;;5054426;28;20036;-81
2023/10/19 07:03:33;;;;;;;4.78;3.00;;;16.10;76.60;;;;;;5055725;28;20049;-79
2023/10/19 07:05:59;;;;;;;6.45;2.88;;;16.20;76.60;;;;;;5055489;28;20477;-81
2023/10/19 07:08:27;;;;;;;2.58;2.10;;;16.30;76.60;;;;;;5055654;28;20021;-81
2023/10/19 07:10:53;;;;;;;2.50;1.70;;;16.30;76.60;;;;;;5055909;28;20040;-79
2023/10/19 07:13:20;;;;;;;3.85;1.55;;;16.40;75.80;;;;;;5055344;28;20374;-80
2023/10/19 07:15:49;;;;;;;3.38;1.17;;;16.50;75.80;;;;;;5055661;28;20068;-80
2023/10/19 07:18:14;;;;;;;1.75;0.93;;;16.50;75.40;;;;;;5052947;28;20028;-77
2023/10/19 07:20:42;;;;;;;2.22;1.25;;;16.60;75.30;;;;;;5055277;28;20086;-80
2023/10/19 07:23:26;;;;;;;2.20;1.15;;;16.60;75.30;;;;;;5055492;28;20052;-81
2023/10/19 07:25:56;;;;;;;2.15;0.98;;;16.60;74.90;;;;;;5055563;28;20479;-80
2023/10/19 07:28:26;;;;;;;2.33;1.08;;;16.60;74.90;;;;;;5055618;28;20027;-80
2023/10/19 07:30:52;;;;;;;1.33;1.00;;;16.70;74.80;;;;;;5054507;28;20111;-77
2023/10/19 07:33:19;;;;;;;1.42;0.80;;;16.70;74.30;;;;;;5054156;28;20087;-77
2023/10/19 07:35:46;;;;;;;4.50;0.75;;;16.80;74.40;;;;;;5055434;28;20029;-75
2023/10/19 07:38:16;;;;;;;2.13;1.15;;;16.80;74.40;;;;;;5055388;28;20016;-81
2023/10/19 07:40:43;;;;;;;2.78;0.90;;;16.80;73.90;;;;;;5055489;28;20112;-83
2023/10/19 07:43:09;;;;;;;1.20;0.55;;;16.90;74.00;;;;;;5055581;28;20466;-80
2023/10/19 07:45:36;;;;;;;1.10;0.68;;;17.00;73.00;;;;;;5055249;28;20060;-79
2023/10/19 07:48:10;;;;;;;0.98;0.60;;;17.00;72.60;;;;;;5055155;28;20069;-77
2023/10/19 07:50:37;;;;;;;1.48;0.70;;;17.10;72.20;;;;;;5054890;28;20083;-73
2023/10/19 07:53:03;;;;;;;0.82;0.47;;;17.20;72.00;;;;;;5052018;28;20394;-73
2023/10/19 07:55:33;;;;;;;2.40;0.63;;;17.10;71.50;;;;;;5055134;28;20025;-74
2023/10/19 07:58:06;;;;;;;1.83;0.60;;;17.10;72.20;;;;;;5053104;28;20377;-74
2023/10/19 08:00:33;;;;;;;2.70;0.93;;;17.10;72.00;;;;;;5054452;28;20549;-75
2023/10/19 08:03:00;;;;;;;3.70;1.80;;;17.10;72.30;;;;;;5054891;28;20075;-73
2023/10/19 08:05:26;;;;;;;2.60;0.80;;;17.10;73.50;;;;;;5053019;28;20025;-72
2023/10/19 08:07:52;;;;;;;2.08;0.80;;;17.10;73.70;;;;;;5054097;28;20021;-72
2023/10/19 08:10:19;;;;;;;1.77;0.70;;;17.10;74.00;;;;;;5053748;28;20035;-73
2023/10/19 08:12:47;;;;;;;1.27;0.60;;;17.10;74.20;;;;;;5052753;28;20462;-72
2023/10/19 08:15:15;;;;;;;1.13;0.85;;;17.10;74.30;;;;;;5054203;28;20017;-72
2023/10/19 08:17:49;;;;;;;3.17;1.20;;;17.10;74.20;;;;;;5053878;28;20021;-73
2023/10/19 08:20:16;;;;;;;1.33;1.10;;;17.10;74.40;;;;;;5053762;28;20033;-73
2023/10/19 08:22:47;;;;;;;1.33;0.88;;;17.00;74.20;;;;;;5053681;28;20021;-73
2023/10/19 08:25:16;;;;;;;2.55;0.85;;;17.00;74.20;;;;;;5053703;28;20386;-73
2023/10/19 08:27:44;;;;;;;0.75;0.60;;;17.00;74.50;;;;;;5053864;28;20095;-73
2023/10/19 08:30:14;;;;;;;1.45;0.90;;;17.00;74.80;;;;;;5052623;28;20068;-73
2023/10/19 08:32:42;;;;;;;3.53;1.00;;;17.00;74.80;;;;;;5051959;28;20386;-72
2023/10/19 08:35:11;;;;;;;1.08;0.90;;;17.00;74.90;;;;;;5052008;28;20049;-72
2023/10/19 08:37:39;;;;;;;1.65;1.00;;;16.90;75.70;;;;;;5053663;28;20082;-72
2023/10/19 08:40:14;;;;;;;1.60;0.80;;;17.00;75.70;;;;;;5053440;28;20055;-72
2023/10/19 08:42:41;;;;;;;2.08;0.80;;;16.90;75.50;;;;;;5053368;28;20021;-72
2023/10/19 08:45:08;;;;;;;1.23;0.70;;;16.90;75.50;;;;;;5053272;28;20025;-72
2023/10/19 08:47:36;;;;;;;0.65;0.52;;;16.80;75.10;;;;;;5053184;28;20033;-72
2023/10/19 08:50:05;;;;;;;0.70;0.50;;;16.80;75.00;;;;;;5053423;28;20025;-73
2023/10/19 08:52:32;;;;;;;1.45;0.50;;;16.80;74.90;;;;;;5053119;28;20627;-73
2023/10/19 08:54:57;;;;;;;0.95;0.50;;;16.90;75.40;;;;;;5053502;28;20048;-74
2023/10/19 08:57:23;;;;;;;1.70;0.80;;;16.90;75.50;;;;;;5052760;28;20044;-73
2023/10/19 08:59:49;;;;;;;0.90;0.40;;;16.90;74.40;;;;;;5053280;28;20487;-73
2023/10/19 09:02:16;;;;;;;2.00;0.57;;;16.90;74.90;;;;;;5053051;28;20024;-73
2023/10/19 09:04:43;;;;;;;0.63;0.50;;;17.00;75.20;;;;;;5052967;28;20154;-73
2023/10/19 09:07:10;;;;;;;1.00;0.65;;;17.00;75.60;;;;;;5053375;28;20025;-73
2023/10/19 09:09:39;;;;;;;1.75;0.60;;;16.90;75.60;;;;;;5052246;28;20603;-77
2023/10/19 09:12:09;;;;;;;0.85;0.65;;;16.90;75.20;;;;;;5054935;28;20024;-76
2023/10/19 09:14:39;;;;;;;1.02;0.55;;;16.90;75.00;;;;;;5053152;28;20021;-74
2023/10/19 09:17:05;;;;;;;0.57;0.43;;;16.90;74.50;;;;;;5054746;28;20043;-77
2023/10/19 09:19:41;;;;;;;1.00;0.60;;;17.00;74.40;;;;;;5052716;28;20580;-76
2023/10/19 09:22:07;;;;;;;1.65;0.60;;;17.00;74.80;;;;;;5052913;28;20457;-77
2023/10/19 09:24:37;;;;;;;1.45;0.68;;;17.00;75.20;;;;;;5053219;28;20033;-74
2023/10/19 09:27:03;;;;;;;0.55;0.47;;;17.00;76.30;;;;;;5051839;28;20025;-72
2023/10/19 09:29:31;;;;;;;0.68;0.40;;;17.00;76.40;;;;;;5052660;28;20049;-77
2023/10/19 09:32:02;;;;;;;0.88;0.57;;;17.10;76.20;;;;;;5052863;28;20033;-76
2023/10/19 09:34:31;;;;;;;3.13;0.90;;;17.00;77.00;;;;;;5052801;28;20059;-76
2023/10/19 09:37:01;;;;;;;1.30;0.70;;;17.00;77.10;;;;;;5052915;28;20093;-77
2023/10/19 09:39:34;;;;;;;0.82;0.73;;;16.90;77.70;;;;;;5052654;28;20028;-74
2023/10/19 09:42:05;;;;;;;1.33;0.38;;;16.90;77.60;;;;;;5057636;28;20108;-76
2023/10/19 09:44:38;;;;;;;0.68;0.40;;;16.90;77.60;;;;;;5059927;28;20017;-77
2023/10/19 09:47:06;;;;;;;0.93;0.63;;;16.90;77.60;;;;;;5059560;28;20025;-76
2023/10/19 09:49:32;;;;;;;0.75;0.60;;;16.90;77.80;;;;;;5058909;28;20373;-72
2023/10/19 09:51:57;;;;;;;0.68;0.50;;;16.80;77.60;;;;;;5059210;28;20021;-73
2023/10/19 09:54:34;;;;;;;0.93;0.50;;;16.80;76.90;;;;;;5058981;28;20513;-75
2023/10/19 09:57:12;;;;;;;0.80;0.40;;;16.80;77.20;;;;;;5059203;28;20105;-73
2023/10/19 09:59:41;;;;;;;0.95;0.40;;;16.80;77.30;;;;;;5059015;28;20108;-77
2023/10/19 10:02:15;;;;;;;1.98;0.45;;;16.90;77.50;;;;;;5057342;28;20363;-75
2023/10/19 10:04:42;;;;;;;1.73;0.45;;;16.90;77.60;;;;;;5058915;28;20101;-74
2023/10/19 10:07:09;;;;;;;1.05;0.40;;;16.90;77.70;;;;;;5058725;28;20489;-77
2023/10/19 10:09:43;;;;;;;1.10;0.70;;;17.00;77.60;;;;;;5058725;28;20021;-76
2023/10/19 10:12:23;;;;;;;1.00;0.50;;;17.00;77.40;;;;;;5058864;28;20516;-74
2023/10/19 10:15:07;;;;;;;1.00;0.90;;;17.00;77.30;;;;;;5059020;28;20021;-74
2023/10/19 10:17:34;;;;;;;1.80;0.98;;;16.90;77.80;;;;;;5059152;28;20021;-74
2023/10/19 10:20:17;;;;;;;3.33;0.70;;;16.90;78.00;;;;;;5058920;28;20033;-78
2023/10/19 10:22:43;;;;;;;1.83;0.90;;;16.90;79.20;;;;;;5059007;28;20075;-77
2023/10/19 10:25:27;;;;;;;1.17;0.57;;;16.90;79.20;;;;;;5058854;28;20025;-76
2023/10/19 10:27:54;;;;;;;0.98;0.65;;;16.80;79.50;;;;;;5057906;28;20025;-76
2023/10/19 10:30:20;;;;;;;1.02;0.60;;;16.80;79.70;;;;;;5058886;28;20048;-77
2023/10/19 10:32:55;;;;;;;1.33;0.50;;;16.80;80.10;;;;;;5061604;28;20024;-76
2023/10/19 10:35:36;;;;;;;1.00;0.88;;;16.70;80.60;;;;;;5059022;28;20037;-76
2023/10/19 10:38:06;;;;;;;0.75;0.55;;;16.70;80.90;;;;;;5058703;28;20548;-76
2023/10/19 10:40:45;;;;;;;1.80;0.93;;;16.70;80.90;;;;;;5058964;28;20040;-75
2023/10/19 10:43:12;;;;;;;2.22;1.05;;;16.70;81.20;;;;;;5057807;28;20450;-78
2023/10/19 10:45:38;;;;;;;2.30;1.33;;;16.70;81.50;;;;;;5058938;28;20033;-72
2023/10/19 10:48:03;;;;;;;1.63;1.13;;;16.70;81.70;;;;;;5057155;28;20075;-72
2023/10/19 10:50:29;;;;;;;2.20;1.23;;;16.80;81.90;;;;;;5057141;28;20031;-75
2023/10/19 10:52:57;;;;;;;2.25;1.20;;;16.80;82.00;;;;;;5054971;28;20025;-73
2023/10/19 10:55:25;;;;;;;2.25;0.98;;;16.80;82.30;;;;;;5053631;28;20017;-73
2023/10/19 10:57:51;;;;;;;1.30;1.10;;;16.80;82.50;;;;;;5054986;28;20025;-76
2023/10/19 11:00:17;;;;;;;3.00;1.83;;;16.80;82.40;;;;;;5054554;28;20033;-72
2023/10/19 11:02:49;;;;;;;2.15;1.50;;;16.90;82.70;;;;;;5056395;28;20017;-73
2023/10/19 11:05:16;;;;;;;1.88;1.33;;;16.90;82.80;;;;;;5054509;28;20050;-73
2023/10/19 11:08:02;;;;;;;2.30;1.10;;;16.90;82.70;;;;;;5054860;28;20028;-74
2023/10/19 11:10:29;;;;;;;2.55;1.50;;;16.90;82.50;;;;;;5053099;28;20037;-76
2023/10/19 11:13:06;;;;;;;2.10;1.20;;;17.00;82.70;;;;;;5052816;28;20017;-73
2023/10/19 11:15:32;;;;;;;1.33;1.00;;;17.10;83.10;;;;;;5054358;28;20024;-75
2023/10/19 11:17:58;;;;;;;2.42;0.95;;;17.10;83.00;;;;;;5052126;28;20021;-73
2023/10/19 11:20:27;;;;;;;2.00;1.08;;;17.10;82.50;;;;;;5054668;28;20097;-73
2023/10/19 11:22:55;;;;;;;0.73;0.73;;;17.10;82.30;;;;;;5054214;28;20028;-73
2023/10/19 11:25:28;;;;;;;1.20;0.80;;;17.20;82.20;;;;;;5054368;28;20046;-73
2023/10/19 11:27:58;;;;;;;2.97;1.88;;;17.20;82.20;;;;;;5054170;28;20552;-73
2023/10/19 11:30:32;;;;;;;2.65;2.40;;;17.10;82.40;;;;;;5053894;28;20480;-73
2023/10/19 11:32:59;;;;;;;3.80;2.42;;;17.00;82.90;;;;;;5053742;28;20517;-73
2023/10/19 11:35:30;;;;;;;2.45;1.90;;;17.00;83.20;;;;;;5052602;28;20163;-73
2023/10/19 11:37:58;;;;;;;2.72;1.50;;;17.00;83.70;;;;;;5052727;28;20025;-72
2023/10/19 11:40:25;;;;;;;1.13;0.85;;;17.00;83.50;;;;;;5054354;28;20459;-72
2023/10/19 11:42:51;;;;;;;1.70;1.17;;;17.10;83.00;;;;;;5054171;28;20047;-72
2023/10/19 11:45:17;;;;;;;1.65;1.10;;;17.20;82.90;;;;;;5054368;28;20036;-72
2023/10/19 11:47:44;;;;;;;1.33;0.80;;;17.30;82.80;;;;;;5054417;28;20075;-73
2023/10/19 11:50:14;;;;;;;1.10;0.90;;;17.50;82.60;;;;;;5054539;28;20059;-73
2023/10/19 11:52:40;;;;;;;2.25;1.35;;;17.70;82.20;;;;;;5054723;28;20017;-72
2023/10/19 11:55:06;;;;;;;2.50;1.38;;;17.80;81.50;;;;;;5055574;28;20135;-73
2023/10/19 11:57:32;;;;;;;1.40;0.95;;;17.90;81.20;;;;;;5054413;28;20053;-73
2023/10/19 11:59:59;;;;;;;2.10;1.17;;;18.00;81.00;;;;;;5054142;28;20043;-73
2023/10/19 12:02:24;;;;;;;2.38;1.10;;;18.00;80.90;;;;;;5054329;28;20021;-73
2023/10/19 12:04:50;;;;;;;4.57;1.58;;;17.90;80.80;;;;;;5053150;28;20035;-73
2023/10/19 12:07:16;;;;;;;2.25;1.55;;;17.80;80.30;;;;;;5054001;28;20063;-73
2023/10/19 12:09:41;;;;;;;3.38;1.92;;;17.70;80.70;;;;;;5054106;28;20037;-73
2023/10/19 12:12:08;;;;;;;2.45;1.73;;;17.60;81.20;;;;;;5054010;28;20029;-73
2023/10/19 12:14:36;;;;;;;2.63;1.40;;;17.60;81.60;;;;;;5054092;28;20025;-73
2023/10/19 12:17:02;;;;;;;3.30;1.05;;;17.50;82.30;;;;;;5054094;28;20163;-73
2023/10/19 12:19:29;;;;;;;1.02;0.82;;;17.60;82.50;;;;;;5053950;28;20516;-73
2023/10/19 12:21:56;;;;;;;1.20;1.02;;;17.60;82.50;;;;;;5054126;28;20021;-74
2023/10/19 12:24:22;;;;;;;1.40;1.00;;;17.70;82.50;;;;;;5054099;28;20025;-73
2023/10/19 12:26:47;;;;;;;2.28;1.10;;;17.80;81.90;;;;;;5053980;28;20021;-75
2023/10/19 12:29:16;;;;;;;1.30;1.00;;;17.90;81.60;;;;;;5052645;28;20031;-74
2023/10/19 12:31:42;;;;;;;0.93;0.90;;;18.00;81.30;;;;;;5052790;28;20025;-73
2023/10/19 12:34:07;;;;;;;1.33;1.02;;;18.10;81.20;;;;;;5053625;28;20128;-76
2023/10/19 12:36:35;;;;;;;1.30;0.80;;;18.10;80.40;;;;;;5052719;28;20032;-75
2023/10/19 12:39:04;;;;;;;1.27;0.70;;;18.00;78.10;;;;;;5053701;28;20474;-76
2023/10/19 12:41:31;;;;;;;1.50;0.90;;;18.00;77.10;;;;;;5052845;28;20029;-75
2023/10/19 12:43:57;;;;;;;2.08;1.20;;;17.90;76.80;;;;;;5052221;28;20028;-75
2023/10/19 12:46:29;;;;;;;1.00;0.82;;;17.90;77.70;;;;;;5052836;28;20029;-73
2023/10/19 12:48:56;;;;;;;2.70;1.20;;;17.80;78.00;;;;;;5053614;28;20139;-74
2023/10/19 12:51:25;;;;;;;1.02;1.00;;;17.70;78.80;;;;;;5053448;28;20390;-74
2023/10/19 12:53:52;;;;;;;3.10;1.70;;;17.70;79.40;;;;;;5052037;28;20497;-74
2023/10/19 12:56:19;;;;;;;2.25;1.50;;;17.70;79.50;;;;;;5053537;28;20419;-74
2023/10/19 12:58:44;;;;;;;1.67;1.33;;;17.60;79.60;;;;;;5053548;28;20037;-74
2023/10/19 13:01:19;;;;;;;1.90;1.50;;;17.60;79.70;;;;;;5052110;28;20017;-75
2023/10/19 13:03:51;;;;;;;1.40;1.17;;;17.70;79.70;;;;;;5053556;28;20028;-76
2023/10/19 13:06:17;;;;;;;3.22;1.63;;;17.60;80.40;;;;;;5053327;28;20355;-76